sensor_id;sensor_type;location;lat;lon;timestamp;P1;durP1;ratioP1;P2;durP2;ratioP2
23449;SDS011;11897;45.438;12.128;2022-12-10T00:01:04;6.37;;;3.43;;
23449;SDS011;11897;45.438;12.128;2022-12-10T00:03:35;9.27;;;5.03;;
23449;SDS011;11897;45.438;12.128;2022-12-10T00:06:03;9.40;;;4.37;;
23449;SDS011;11897;45.438;12.128;2022-12-10T00:08:30;8.90;;;4.47;;
23449;SDS011;11897;45.438;12.128;2022-12-10T00:10:57;10.90;;;4.20;;
23449;SDS011;11897;45.438;12.128;2022-12-10T00:13:24;7.03;;;4.13;;
23449;SDS011;11897;45.438;12.128;2022-12-10T00:15:51;8.97;;;4.33;;
23449;SDS011;11897;45.438;12.128;2022-12-10T00:18:17;6.00;;;3.60;;
23449;SDS011;11897;45.438;12.128;2022-12-10T00:20:45;5.70;;;3.47;;
23449;SDS011;11897;45.438;12.128;2022-12-10T00:23:12;8.63;;;3.93;;
23449;SDS011;11897;45.438;12.128;2022-12-10T00:25:39;9.60;;;4.27;;
23449;SDS011;11897;45.438;12.128;2022-12-10T00:28:05;9.27;;;3.87;;
23449;SDS011;11897;45.438;12.128;2022-12-10T00:30:32;11.57;;;5.33;;
23449;SDS011;11897;45.438;12.128;2022-12-10T00:32:59;8.77;;;4.17;;
23449;SDS011;11897;45.438;12.128;2022-12-10T00:35:25;7.43;;;4.30;;
23449;SDS011;11897;45.438;12.128;2022-12-10T00:37:56;9.10;;;4.47;;
23449;SDS011;11897;45.438;12.128;2022-12-10T00:40:23;7.00;;;3.97;;
23449;SDS011;11897;45.438;12.128;2022-12-10T00:42:50;8.87;;;3.97;;
23449;SDS011;11897;45.438;12.128;2022-12-10T00:45:18;5.40;;;3.43;;
23449;SDS011;11897;45.438;12.128;2022-12-10T00:47:47;8.17;;;3.97;;
23449;SDS011;11897;45.438;12.128;2022-12-10T00:50:14;8.43;;;4.03;;
23449;SDS011;11897;45.438;12.128;2022-12-10T00:52:41;8.37;;;5.23;;
23449;SDS011;11897;45.438;12.128;2022-12-10T00:55:09;11.20;;;4.87;;
23449;SDS011;11897;45.438;12.128;2022-12-10T00:57:36;8.20;;;3.97;;
23449;SDS011;11897;45.438;12.128;2022-12-10T01:00:03;7.40;;;4.17;;
23449;SDS011;11897;45.438;12.128;2022-12-10T01:02:30;7.67;;;4.40;;
23449;SDS011;11897;45.438;12.128;2022-12-10T01:04:57;8.23;;;3.83;;
23449;SDS011;11897;45.438;12.128;2022-12-10T01:07:23;9.00;;;4.77;;
23449;SDS011;11897;45.438;12.128;2022-12-10T01:09:50;6.13;;;3.60;;
23449;SDS011;11897;45.438;12.128;2022-12-10T01:12:18;5.00;;;3.60;;
23449;SDS011;11897;45.438;12.128;2022-12-10T01:14:46;8.30;;;4.37;;
23449;SDS011;11897;45.438;12.128;2022-12-10T01:17:15;9.80;;;4.20;;
23449;SDS011;11897;45.438;12.128;2022-12-10T01:19:43;7.53;;;4.37;;
23449;SDS011;11897;45.438;12.128;2022-12-10T01:22:10;6.97;;;4.10;;
23449;SDS011;11897;45.438;12.128;2022-12-10T01:24:37;8.23;;;3.80;;
23449;SDS011;11897;45.438;12.128;2022-12-10T01:27:04;9.27;;;4.70;;
23449;SDS011;11897;45.438;12.128;2022-12-10T01:29:35;8.83;;;4.57;;
23449;SDS011;11897;45.438;12.128;2022-12-10T01:32:03;8.90;;;4.10;;
23449;SDS011;11897;45.438;12.128;2022-12-10T01:34:31;8.70;;;4.33;;
23449;SDS011;11897;45.438;12.128;2022-12-10T01:36:57;8.80;;;4.23;;
23449;SDS011;11897;45.438;12.128;2022-12-10T01:39:25;9.60;;;4.83;;
23449;SDS011;11897;45.438;12.128;2022-12-10T01:41:58;8.77;;;4.60;;
23449;SDS011;11897;45.438;12.128;2022-12-10T01:47:13;8.77;;;4.47;;
23449;SDS011;11897;45.438;12.128;2022-12-10T01:49:40;9.20;;;4.10;;
23449;SDS011;11897;45.438;12.128;2022-12-10T01:52:11;6.07;;;3.47;;
23449;SDS011;11897;45.438;12.128;2022-12-10T01:54:39;11.07;;;4.80;;
23449;SDS011;11897;45.438;12.128;2022-12-10T01:57:09;8.80;;;4.20;;
23449;SDS011;11897;45.438;12.128;2022-12-10T01:59:37;8.63;;;4.10;;
23449;SDS011;11897;45.438;12.128;2022-12-10T02:02:08;8.43;;;3.67;;
23449;SDS011;11897;45.438;12.128;2022-12-10T02:04:40;8.80;;;4.30;;
23449;SDS011;11897;45.438;12.128;2022-12-10T02:07:13;9.83;;;4.57;;
23449;SDS011;11897;45.438;12.128;2022-12-10T02:09:45;8.17;;;3.80;;
23449;SDS011;11897;45.438;12.128;2022-12-10T02:12:16;11.47;;;5.03;;
23449;SDS011;11897;45.438;12.128;2022-12-10T02:14:47;11.83;;;4.90;;
23449;SDS011;11897;45.438;12.128;2022-12-10T02:17:24;7.03;;;4.23;;
23449;SDS011;11897;45.438;12.128;2022-12-10T02:22:42;12.57;;;5.37;;
23449;SDS011;11897;45.438;12.128;2022-12-10T02:25:11;10.93;;;4.97;;
23449;SDS011;11897;45.438;12.128;2022-12-10T02:27:42;8.40;;;4.70;;
23449;SDS011;11897;45.438;12.128;2022-12-10T02:30:13;10.17;;;4.53;;
23449;SDS011;11897;45.438;12.128;2022-12-10T02:32:40;9.47;;;4.43;;
23449;SDS011;11897;45.438;12.128;2022-12-10T02:35:10;10.80;;;4.40;;
23449;SDS011;11897;45.438;12.128;2022-12-10T02:37:40;11.97;;;4.70;;
23449;SDS011;11897;45.438;12.128;2022-12-10T02:40:11;7.00;;;3.87;;
23449;SDS011;11897;45.438;12.128;2022-12-10T02:42:45;10.00;;;4.70;;
23449;SDS011;11897;45.438;12.128;2022-12-10T02:45:15;15.97;;;5.50;;
23449;SDS011;11897;45.438;12.128;2022-12-10T02:47:46;10.33;;;4.40;;
23449;SDS011;11897;45.438;12.128;2022-12-10T02:50:16;10.80;;;4.73;;
23449;SDS011;11897;45.438;12.128;2022-12-10T02:52:47;9.70;;;4.67;;
23449;SDS011;11897;45.438;12.128;2022-12-10T02:55:14;9.93;;;4.37;;
23449;SDS011;11897;45.438;12.128;2022-12-10T02:57:45;14.23;;;5.77;;
23449;SDS011;11897;45.438;12.128;2022-12-10T03:00:16;12.27;;;5.47;;
23449;SDS011;11897;45.438;12.128;2022-12-10T03:03:08;13.07;;;5.13;;
23449;SDS011;11897;45.438;12.128;2022-12-10T03:05:40;14.93;;;5.63;;
23449;SDS011;11897;45.438;12.128;2022-12-10T03:08:09;13.13;;;5.20;;
23449;SDS011;11897;45.438;12.128;2022-12-10T03:10:39;13.80;;;6.20;;
23449;SDS011;11897;45.438;12.128;2022-12-10T03:13:10;11.17;;;4.87;;
23449;SDS011;11897;45.438;12.128;2022-12-10T03:15:40;17.03;;;5.17;;
23449;SDS011;11897;45.438;12.128;2022-12-10T03:18:07;12.17;;;5.20;;
23449;SDS011;11897;45.438;12.128;2022-12-10T03:20:39;10.47;;;4.03;;
23449;SDS011;11897;45.438;12.128;2022-12-10T03:23:07;14.43;;;6.20;;
23449;SDS011;11897;45.438;12.128;2022-12-10T03:25:35;11.47;;;5.20;;
23449;SDS011;11897;45.438;12.128;2022-12-10T03:28:02;12.40;;;5.53;;
23449;SDS011;11897;45.438;12.128;2022-12-10T03:30:30;13.93;;;5.63;;
23449;SDS011;11897;45.438;12.128;2022-12-10T03:32:59;12.17;;;5.63;;
23449;SDS011;11897;45.438;12.128;2022-12-10T03:35:27;15.17;;;6.33;;
23449;SDS011;11897;45.438;12.128;2022-12-10T03:37:53;10.03;;;4.07;;
23449;SDS011;11897;45.438;12.128;2022-12-10T03:40:21;11.93;;;4.93;;
23449;SDS011;11897;45.438;12.128;2022-12-10T03:42:49;12.07;;;5.67;;
23449;SDS011;11897;45.438;12.128;2022-12-10T03:45:16;12.00;;;4.87;;
23449;SDS011;11897;45.438;12.128;2022-12-10T03:47:43;10.07;;;4.20;;
23449;SDS011;11897;45.438;12.128;2022-12-10T03:50:11;14.53;;;5.93;;
23449;SDS011;11897;45.438;12.128;2022-12-10T03:52:39;12.47;;;5.53;;
23449;SDS011;11897;45.438;12.128;2022-12-10T03:55:06;12.07;;;5.47;;
23449;SDS011;11897;45.438;12.128;2022-12-10T03:57:34;12.00;;;5.73;;
23449;SDS011;11897;45.438;12.128;2022-12-10T04:00:01;13.23;;;5.80;;
23449;SDS011;11897;45.438;12.128;2022-12-10T04:02:37;13.50;;;5.63;;
23449;SDS011;11897;45.438;12.128;2022-12-10T04:05:04;10.60;;;4.60;;
23449;SDS011;11897;45.438;12.128;2022-12-10T04:07:33;13.00;;;5.27;;
23449;SDS011;11897;45.438;12.128;2022-12-10T04:09:59;10.37;;;4.53;;
23449;SDS011;11897;45.438;12.128;2022-12-10T04:12:26;9.37;;;3.93;;
23449;SDS011;11897;45.438;12.128;2022-12-10T04:14:53;12.43;;;4.67;;
23449;SDS011;11897;45.438;12.128;2022-12-10T04:17:37;9.43;;;4.33;;
23449;SDS011;11897;45.438;12.128;2022-12-10T04:20:03;7.40;;;4.30;;
23449;SDS011;11897;45.438;12.128;2022-12-10T04:22:30;13.77;;;5.77;;
23449;SDS011;11897;45.438;12.128;2022-12-10T04:25:16;13.40;;;4.63;;
23449;SDS011;11897;45.438;12.128;2022-12-10T04:28:00;9.60;;;5.00;;
23449;SDS011;11897;45.438;12.128;2022-12-10T04:30:27;11.53;;;4.70;;
23449;SDS011;11897;45.438;12.128;2022-12-10T04:32:53;11.47;;;4.30;;
23449;SDS011;11897;45.438;12.128;2022-12-10T04:35:21;14.33;;;4.97;;
23449;SDS011;11897;45.438;12.128;2022-12-10T04:37:47;12.27;;;5.53;;
23449;SDS011;11897;45.438;12.128;2022-12-10T04:40:15;8.97;;;4.80;;
23449;SDS011;11897;45.438;12.128;2022-12-10T04:42:43;13.20;;;4.97;;
23449;SDS011;11897;45.438;12.128;2022-12-10T04:45:10;7.60;;;4.27;;
23449;SDS011;11897;45.438;12.128;2022-12-10T04:47:37;10.70;;;4.43;;
23449;SDS011;11897;45.438;12.128;2022-12-10T04:50:05;10.43;;;4.67;;
23449;SDS011;11897;45.438;12.128;2022-12-10T04:52:32;12.20;;;5.37;;
23449;SDS011;11897;45.438;12.128;2022-12-10T04:55:01;8.30;;;4.43;;
23449;SDS011;11897;45.438;12.128;2022-12-10T04:57:30;9.43;;;3.97;;
23449;SDS011;11897;45.438;12.128;2022-12-10T04:59:57;11.33;;;4.90;;
23449;SDS011;11897;45.438;12.128;2022-12-10T05:02:24;13.80;;;5.63;;
23449;SDS011;11897;45.438;12.128;2022-12-10T05:04:51;9.47;;;3.90;;
23449;SDS011;11897;45.438;12.128;2022-12-10T05:07:18;10.63;;;5.20;;
23449;SDS011;11897;45.438;12.128;2022-12-10T05:09:46;10.67;;;4.00;;
23449;SDS011;11897;45.438;12.128;2022-12-10T05:12:13;12.10;;;4.53;;
23449;SDS011;11897;45.438;12.128;2022-12-10T05:14:42;14.67;;;4.90;;
23449;SDS011;11897;45.438;12.128;2022-12-10T05:17:09;13.20;;;4.20;;
23449;SDS011;11897;45.438;12.128;2022-12-10T05:19:38;9.27;;;4.40;;
23449;SDS011;11897;45.438;12.128;2022-12-10T05:22:05;11.37;;;4.23;;
23449;SDS011;11897;45.438;12.128;2022-12-10T05:24:49;9.13;;;3.40;;
23449;SDS011;11897;45.438;12.128;2022-12-10T05:27:16;12.30;;;4.50;;
23449;SDS011;11897;45.438;12.128;2022-12-10T05:29:44;13.53;;;4.40;;
23449;SDS011;11897;45.438;12.128;2022-12-10T05:32:10;12.53;;;4.50;;
23449;SDS011;11897;45.438;12.128;2022-12-10T05:34:37;11.60;;;4.50;;
23449;SDS011;11897;45.438;12.128;2022-12-10T05:37:04;16.43;;;4.63;;
23449;SDS011;11897;45.438;12.128;2022-12-10T05:39:30;11.17;;;4.20;;
23449;SDS011;11897;45.438;12.128;2022-12-10T05:41:57;11.10;;;5.07;;
23449;SDS011;11897;45.438;12.128;2022-12-10T05:44:24;14.50;;;4.63;;
23449;SDS011;11897;45.438;12.128;2022-12-10T05:46:53;11.10;;;4.20;;
23449;SDS011;11897;45.438;12.128;2022-12-10T05:49:20;15.43;;;5.80;;
23449;SDS011;11897;45.438;12.128;2022-12-10T05:51:47;9.30;;;3.80;;
23449;SDS011;11897;45.438;12.128;2022-12-10T05:54:14;13.50;;;4.73;;
23449;SDS011;11897;45.438;12.128;2022-12-10T05:56:40;11.87;;;4.00;;
23449;SDS011;11897;45.438;12.128;2022-12-10T05:59:10;8.87;;;4.30;;
23449;SDS011;11897;45.438;12.128;2022-12-10T06:01:37;10.60;;;4.00;;
23449;SDS011;11897;45.438;12.128;2022-12-10T06:04:05;10.03;;;5.17;;
23449;SDS011;11897;45.438;12.128;2022-12-10T06:06:33;14.73;;;4.47;;
23449;SDS011;11897;45.438;12.128;2022-12-10T06:09:00;8.53;;;4.20;;
23449;SDS011;11897;45.438;12.128;2022-12-10T06:11:27;12.90;;;4.50;;
23449;SDS011;11897;45.438;12.128;2022-12-10T06:13:54;18.10;;;4.97;;
23449;SDS011;11897;45.438;12.128;2022-12-10T06:16:22;9.27;;;4.07;;
23449;SDS011;11897;45.438;12.128;2022-12-10T06:18:49;15.00;;;5.13;;
23449;SDS011;11897;45.438;12.128;2022-12-10T06:21:18;12.27;;;3.67;;
23449;SDS011;11897;45.438;12.128;2022-12-10T06:23:45;11.83;;;4.60;;
23449;SDS011;11897;45.438;12.128;2022-12-10T06:26:12;14.00;;;4.13;;
23449;SDS011;11897;45.438;12.128;2022-12-10T06:28:43;10.03;;;3.93;;
23449;SDS011;11897;45.438;12.128;2022-12-10T06:31:10;16.47;;;5.23;;
23449;SDS011;11897;45.438;12.128;2022-12-10T06:33:39;15.43;;;4.93;;
23449;SDS011;11897;45.438;12.128;2022-12-10T06:36:06;10.33;;;4.13;;
23449;SDS011;11897;45.438;12.128;2022-12-10T06:38:39;11.20;;;4.87;;
23449;SDS011;11897;45.438;12.128;2022-12-10T06:41:06;11.27;;;5.17;;
23449;SDS011;11897;45.438;12.128;2022-12-10T06:43:33;10.70;;;4.27;;
23449;SDS011;11897;45.438;12.128;2022-12-10T06:46:03;11.43;;;4.30;;
23449;SDS011;11897;45.438;12.128;2022-12-10T06:48:30;9.77;;;4.57;;
23449;SDS011;11897;45.438;12.128;2022-12-10T06:50:56;11.43;;;3.70;;
23449;SDS011;11897;45.438;12.128;2022-12-10T06:53:23;13.17;;;4.90;;
23449;SDS011;11897;45.438;12.128;2022-12-10T06:55:53;13.10;;;5.80;;
23449;SDS011;11897;45.438;12.128;2022-12-10T06:58:22;9.07;;;4.23;;
23449;SDS011;11897;45.438;12.128;2022-12-10T07:00:49;11.73;;;4.30;;
23449;SDS011;11897;45.438;12.128;2022-12-10T07:03:16;12.43;;;4.43;;
23449;SDS011;11897;45.438;12.128;2022-12-10T07:05:45;17.37;;;4.50;;
23449;SDS011;11897;45.438;12.128;2022-12-10T07:08:14;17.87;;;6.53;;
23449;SDS011;11897;45.438;12.128;2022-12-10T07:10:43;12.33;;;5.43;;
23449;SDS011;11897;45.438;12.128;2022-12-10T07:13:11;16.50;;;4.87;;
23449;SDS011;11897;45.438;12.128;2022-12-10T07:15:37;12.27;;;5.20;;
23449;SDS011;11897;45.438;12.128;2022-12-10T07:18:04;15.80;;;5.20;;
23449;SDS011;11897;45.438;12.128;2022-12-10T07:20:33;15.80;;;5.50;;
23449;SDS011;11897;45.438;12.128;2022-12-10T07:23:01;8.00;;;3.73;;
23449;SDS011;11897;45.438;12.128;2022-12-10T07:25:28;11.97;;;3.93;;
23449;SDS011;11897;45.438;12.128;2022-12-10T07:27:55;15.73;;;5.33;;
23449;SDS011;11897;45.438;12.128;2022-12-10T07:30:26;13.90;;;5.23;;
23449;SDS011;11897;45.438;12.128;2022-12-10T07:32:53;11.90;;;4.20;;
23449;SDS011;11897;45.438;12.128;2022-12-10T07:35:21;15.97;;;5.83;;
23449;SDS011;11897;45.438;12.128;2022-12-10T07:37:48;18.60;;;5.23;;
23449;SDS011;11897;45.438;12.128;2022-12-10T07:40:15;14.67;;;5.77;;
23449;SDS011;11897;45.438;12.128;2022-12-10T07:42:42;12.83;;;5.57;;
23449;SDS011;11897;45.438;12.128;2022-12-10T07:45:08;16.03;;;4.97;;
23449;SDS011;11897;45.438;12.128;2022-12-10T07:47:39;14.73;;;4.07;;
23449;SDS011;11897;45.438;12.128;2022-12-10T07:50:07;16.53;;;5.43;;
23449;SDS011;11897;45.438;12.128;2022-12-10T07:52:37;12.20;;;5.17;;
23449;SDS011;11897;45.438;12.128;2022-12-10T07:55:04;13.60;;;5.40;;
23449;SDS011;11897;45.438;12.128;2022-12-10T07:57:31;16.20;;;5.77;;
23449;SDS011;11897;45.438;12.128;2022-12-10T07:59:58;11.13;;;5.27;;
23449;SDS011;11897;45.438;12.128;2022-12-10T08:02:25;16.90;;;5.57;;
23449;SDS011;11897;45.438;12.128;2022-12-10T08:04:53;13.07;;;5.57;;
23449;SDS011;11897;45.438;12.128;2022-12-10T08:07:20;15.63;;;4.93;;
23449;SDS011;11897;45.438;12.128;2022-12-10T08:09:46;20.70;;;6.27;;
23449;SDS011;11897;45.438;12.128;2022-12-10T08:12:13;17.47;;;5.17;;
23449;SDS011;11897;45.438;12.128;2022-12-10T08:14:41;13.60;;;5.90;;
23449;SDS011;11897;45.438;12.128;2022-12-10T08:17:09;19.57;;;5.17;;
23449;SDS011;11897;45.438;12.128;2022-12-10T08:19:36;15.77;;;5.93;;
23449;SDS011;11897;45.438;12.128;2022-12-10T08:22:04;15.90;;;5.97;;
23449;SDS011;11897;45.438;12.128;2022-12-10T08:24:32;14.73;;;5.20;;
23449;SDS011;11897;45.438;12.128;2022-12-10T08:27:02;15.47;;;6.17;;
23449;SDS011;11897;45.438;12.128;2022-12-10T08:29:30;16.60;;;5.77;;
23449;SDS011;11897;45.438;12.128;2022-12-10T08:31:57;15.07;;;7.67;;
23449;SDS011;11897;45.438;12.128;2022-12-10T08:34:24;16.13;;;4.43;;
23449;SDS011;11897;45.438;12.128;2022-12-10T08:36:54;15.73;;;6.03;;
23449;SDS011;11897;45.438;12.128;2022-12-10T08:39:22;18.10;;;6.87;;
23449;SDS011;11897;45.438;12.128;2022-12-10T08:41:49;14.00;;;6.17;;
23449;SDS011;11897;45.438;12.128;2022-12-10T08:44:16;18.77;;;6.43;;
23449;SDS011;11897;45.438;12.128;2022-12-10T08:46:43;16.43;;;6.13;;
23449;SDS011;11897;45.438;12.128;2022-12-10T08:49:11;26.33;;;7.67;;
23449;SDS011;11897;45.438;12.128;2022-12-10T08:51:40;22.43;;;5.67;;
23449;SDS011;11897;45.438;12.128;2022-12-10T08:54:07;18.23;;;7.43;;
23449;SDS011;11897;45.438;12.128;2022-12-10T08:56:36;16.43;;;5.33;;
23449;SDS011;11897;45.438;12.128;2022-12-10T08:59:06;16.87;;;5.63;;
23449;SDS011;11897;45.438;12.128;2022-12-10T09:01:32;17.20;;;5.77;;
23449;SDS011;11897;45.438;12.128;2022-12-10T09:03:59;17.47;;;6.53;;
23449;SDS011;11897;45.438;12.128;2022-12-10T09:06:27;11.23;;;5.40;;
23449;SDS011;11897;45.438;12.128;2022-12-10T09:08:53;16.67;;;6.37;;
23449;SDS011;11897;45.438;12.128;2022-12-10T09:11:21;26.97;;;7.03;;
23449;SDS011;11897;45.438;12.128;2022-12-10T09:13:49;19.13;;;6.20;;
23449;SDS011;11897;45.438;12.128;2022-12-10T09:16:16;15.37;;;7.00;;
23449;SDS011;11897;45.438;12.128;2022-12-10T09:18:43;17.03;;;6.50;;
23449;SDS011;11897;45.438;12.128;2022-12-10T09:21:13;14.40;;;5.77;;
23449;SDS011;11897;45.438;12.128;2022-12-10T09:23:41;12.97;;;5.53;;
23449;SDS011;11897;45.438;12.128;2022-12-10T09:26:08;15.77;;;5.67;;
23449;SDS011;11897;45.438;12.128;2022-12-10T09:28:35;9.33;;;4.63;;
23449;SDS011;11897;45.438;12.128;2022-12-10T09:31:04;16.73;;;6.20;;
23449;SDS011;11897;45.438;12.128;2022-12-10T09:33:33;10.90;;;5.20;;
23449;SDS011;11897;45.438;12.128;2022-12-10T09:36:02;10.83;;;4.97;;
23449;SDS011;11897;45.438;12.128;2022-12-10T09:38:28;12.17;;;4.30;;
23449;SDS011;11897;45.438;12.128;2022-12-10T09:40:58;8.97;;;4.50;;
23449;SDS011;11897;45.438;12.128;2022-12-10T09:43:28;10.93;;;5.27;;
23449;SDS011;11897;45.438;12.128;2022-12-10T09:46:01;15.17;;;4.73;;
23449;SDS011;11897;45.438;12.128;2022-12-10T09:48:45;11.53;;;5.13;;
23449;SDS011;11897;45.438;12.128;2022-12-10T09:51:18;13.10;;;5.10;;
23449;SDS011;11897;45.438;12.128;2022-12-10T09:53:47;8.80;;;4.83;;
23449;SDS011;11897;45.438;12.128;2022-12-10T09:56:17;11.30;;;5.60;;
23449;SDS011;11897;45.438;12.128;2022-12-10T09:58:46;10.97;;;4.60;;
23449;SDS011;11897;45.438;12.128;2022-12-10T10:01:13;13.30;;;5.67;;
23449;SDS011;11897;45.438;12.128;2022-12-10T10:03:44;12.73;;;4.30;;
23449;SDS011;11897;45.438;12.128;2022-12-10T10:06:11;14.20;;;5.40;;
23449;SDS011;11897;45.438;12.128;2022-12-10T10:08:39;17.83;;;5.50;;
23449;SDS011;11897;45.438;12.128;2022-12-10T10:11:08;14.17;;;5.47;;
23449;SDS011;11897;45.438;12.128;2022-12-10T10:13:38;13.70;;;5.30;;
23449;SDS011;11897;45.438;12.128;2022-12-10T10:16:16;15.40;;;5.43;;
23449;SDS011;11897;45.438;12.128;2022-12-10T10:18:48;13.53;;;5.83;;
23449;SDS011;11897;45.438;12.128;2022-12-10T10:21:18;13.30;;;5.27;;
23449;SDS011;11897;45.438;12.128;2022-12-10T10:23:47;25.67;;;6.70;;
23449;SDS011;11897;45.438;12.128;2022-12-10T10:26:14;17.23;;;6.47;;
23449;SDS011;11897;45.438;12.128;2022-12-10T10:28:41;11.77;;;4.73;;
23449;SDS011;11897;45.438;12.128;2022-12-10T10:31:12;18.90;;;5.10;;
23449;SDS011;11897;45.438;12.128;2022-12-10T10:33:48;15.63;;;5.20;;
23449;SDS011;11897;45.438;12.128;2022-12-10T10:36:15;11.13;;;5.83;;
23449;SDS011;11897;45.438;12.128;2022-12-10T10:38:47;11.67;;;5.60;;
23449;SDS011;11897;45.438;12.128;2022-12-10T10:41:14;18.83;;;6.30;;
23449;SDS011;11897;45.438;12.128;2022-12-10T10:43:41;14.70;;;4.20;;
23449;SDS011;11897;45.438;12.128;2022-12-10T10:46:11;15.57;;;5.30;;
23449;SDS011;11897;45.438;12.128;2022-12-10T10:48:38;12.97;;;4.77;;
23449;SDS011;11897;45.438;12.128;2022-12-10T10:51:07;12.97;;;5.20;;
23449;SDS011;11897;45.438;12.128;2022-12-10T10:53:39;16.23;;;5.73;;
23449;SDS011;11897;45.438;12.128;2022-12-10T10:56:07;19.63;;;7.03;;
23449;SDS011;11897;45.438;12.128;2022-12-10T10:58:35;15.67;;;5.87;;
23449;SDS011;11897;45.438;12.128;2022-12-10T11:01:03;24.80;;;6.87;;
23449;SDS011;11897;45.438;12.128;2022-12-10T11:03:30;13.63;;;5.77;;
23449;SDS011;11897;45.438;12.128;2022-12-10T11:05:59;17.70;;;6.77;;
23449;SDS011;11897;45.438;12.128;2022-12-10T11:08:28;13.77;;;5.23;;
23449;SDS011;11897;45.438;12.128;2022-12-10T11:10:57;18.73;;;6.70;;
23449;SDS011;11897;45.438;12.128;2022-12-10T11:13:28;15.53;;;4.63;;
23449;SDS011;11897;45.438;12.128;2022-12-10T11:15:55;11.17;;;5.20;;
23449;SDS011;11897;45.438;12.128;2022-12-10T11:18:23;14.73;;;5.40;;
23449;SDS011;11897;45.438;12.128;2022-12-10T11:20:58;20.80;;;5.80;;
23449;SDS011;11897;45.438;12.128;2022-12-10T11:23:28;22.80;;;5.77;;
23449;SDS011;11897;45.438;12.128;2022-12-10T11:25:57;11.27;;;5.27;;
23449;SDS011;11897;45.438;12.128;2022-12-10T11:28:33;13.33;;;4.63;;
23449;SDS011;11897;45.438;12.128;2022-12-10T11:31:11;13.40;;;4.43;;
23449;SDS011;11897;45.438;12.128;2022-12-10T11:33:41;14.47;;;4.47;;
23449;SDS011;11897;45.438;12.128;2022-12-10T11:36:16;9.63;;;3.77;;
23449;SDS011;11897;45.438;12.128;2022-12-10T11:38:50;12.93;;;4.43;;
23449;SDS011;11897;45.438;12.128;2022-12-10T11:41:22;8.10;;;3.80;;
23449;SDS011;11897;45.438;12.128;2022-12-10T11:44:06;11.03;;;4.37;;
23449;SDS011;11897;45.438;12.128;2022-12-10T11:46:42;11.73;;;4.57;;
23449;SDS011;11897;45.438;12.128;2022-12-10T11:49:17;7.73;;;3.83;;
23449;SDS011;11897;45.438;12.128;2022-12-10T11:51:50;11.03;;;3.87;;
23449;SDS011;11897;45.438;12.128;2022-12-10T11:57:13;10.90;;;3.53;;
23449;SDS011;11897;45.438;12.128;2022-12-10T11:59:44;7.47;;;3.03;;
23449;SDS011;11897;45.438;12.128;2022-12-10T12:02:29;8.63;;;3.10;;
23449;SDS011;11897;45.438;12.128;2022-12-10T12:07:44;7.97;;;3.40;;
23449;SDS011;11897;45.438;12.128;2022-12-10T12:13:02;5.07;;;2.70;;
23449;SDS011;11897;45.438;12.128;2022-12-10T12:15:31;7.77;;;3.03;;
23449;SDS011;11897;45.438;12.128;2022-12-10T12:17:59;5.93;;;3.00;;
23449;SDS011;11897;45.438;12.128;2022-12-10T12:20:29;10.17;;;4.27;;
23449;SDS011;11897;45.438;12.128;2022-12-10T12:22:58;5.37;;;2.30;;
23449;SDS011;11897;45.438;12.128;2022-12-10T12:25:27;4.33;;;2.80;;
23449;SDS011;11897;45.438;12.128;2022-12-10T12:27:59;4.60;;;3.17;;
23449;SDS011;11897;45.438;12.128;2022-12-10T12:30:29;7.50;;;3.03;;
23449;SDS011;11897;45.438;12.128;2022-12-10T12:33:04;7.23;;;3.40;;
23449;SDS011;11897;45.438;12.128;2022-12-10T12:35:33;4.30;;;2.40;;
23449;SDS011;11897;45.438;12.128;2022-12-10T12:38:06;6.73;;;3.67;;
23449;SDS011;11897;45.438;12.128;2022-12-10T12:40:36;7.00;;;3.10;;
23449;SDS011;11897;45.438;12.128;2022-12-10T12:43:08;3.53;;;2.03;;
23449;SDS011;11897;45.438;12.128;2022-12-10T12:45:39;8.23;;;3.23;;
23449;SDS011;11897;45.438;12.128;2022-12-10T12:48:11;7.57;;;2.70;;
23449;SDS011;11897;45.438;12.128;2022-12-10T12:50:42;5.43;;;2.90;;
23449;SDS011;11897;45.438;12.128;2022-12-10T12:53:11;4.27;;;2.30;;
23449;SDS011;11897;45.438;12.128;2022-12-10T12:55:39;5.50;;;2.17;;
23449;SDS011;11897;45.438;12.128;2022-12-10T12:58:19;5.27;;;2.27;;
23449;SDS011;11897;45.438;12.128;2022-12-10T13:00:49;5.63;;;2.90;;
23449;SDS011;11897;45.438;12.128;2022-12-10T13:03:21;3.37;;;1.60;;
23449;SDS011;11897;45.438;12.128;2022-12-10T13:05:52;4.20;;;2.60;;
23449;SDS011;11897;45.438;12.128;2022-12-10T13:08:28;5.63;;;2.10;;
23449;SDS011;11897;45.438;12.128;2022-12-10T13:10:57;4.77;;;2.00;;
23449;SDS011;11897;45.438;12.128;2022-12-10T13:13:25;4.93;;;2.20;;
23449;SDS011;11897;45.438;12.128;2022-12-10T13:15:53;5.27;;;2.13;;
23449;SDS011;11897;45.438;12.128;2022-12-10T13:18:23;6.73;;;2.50;;
23449;SDS011;11897;45.438;12.128;2022-12-10T13:23:47;8.57;;;2.57;;
23449;SDS011;11897;45.438;12.128;2022-12-10T13:26:22;7.50;;;3.07;;
23449;SDS011;11897;45.438;12.128;2022-12-10T13:28:51;7.17;;;3.53;;
23449;SDS011;11897;45.438;12.128;2022-12-10T13:31:20;10.10;;;4.13;;
23449;SDS011;11897;45.438;12.128;2022-12-10T13:33:50;8.57;;;3.50;;
23449;SDS011;11897;45.438;12.128;2022-12-10T13:36:21;6.47;;;2.80;;
23449;SDS011;11897;45.438;12.128;2022-12-10T13:38:57;10.37;;;4.10;;
23449;SDS011;11897;45.438;12.128;2022-12-10T13:41:24;10.20;;;4.10;;
23449;SDS011;11897;45.438;12.128;2022-12-10T13:44:25;16.37;;;5.17;;
23449;SDS011;11897;45.438;12.128;2022-12-10T13:49:46;12.57;;;4.70;;
23449;SDS011;11897;45.438;12.128;2022-12-10T13:52:15;10.07;;;3.90;;
23449;SDS011;11897;45.438;12.128;2022-12-10T13:54:49;10.53;;;4.00;;
23449;SDS011;11897;45.438;12.128;2022-12-10T13:57:24;8.33;;;3.30;;
23449;SDS011;11897;45.438;12.128;2022-12-10T13:59:57;9.67;;;4.23;;
23449;SDS011;11897;45.438;12.128;2022-12-10T14:02:50;10.93;;;4.23;;
23449;SDS011;11897;45.438;12.128;2022-12-10T14:05:30;12.70;;;3.93;;
23449;SDS011;11897;45.438;12.128;2022-12-10T14:08:00;8.43;;;4.23;;
23449;SDS011;11897;45.438;12.128;2022-12-10T14:10:30;11.23;;;4.17;;
23449;SDS011;11897;45.438;12.128;2022-12-10T14:12:57;7.50;;;3.53;;
23449;SDS011;11897;45.438;12.128;2022-12-10T14:15:25;9.33;;;3.60;;
23449;SDS011;11897;45.438;12.128;2022-12-10T14:17:55;6.93;;;3.63;;
23449;SDS011;11897;45.438;12.128;2022-12-10T14:20:24;8.67;;;2.70;;
23449;SDS011;11897;45.438;12.128;2022-12-10T14:22:54;9.47;;;3.73;;
23449;SDS011;11897;45.438;12.128;2022-12-10T14:25:42;7.67;;;4.60;;
23449;SDS011;11897;45.438;12.128;2022-12-10T14:28:11;10.83;;;4.13;;
23449;SDS011;11897;45.438;12.128;2022-12-10T14:30:40;7.30;;;3.13;;
23449;SDS011;11897;45.438;12.128;2022-12-10T14:33:08;9.07;;;4.63;;
23449;SDS011;11897;45.438;12.128;2022-12-10T14:35:36;10.63;;;3.57;;
23449;SDS011;11897;45.438;12.128;2022-12-10T14:38:05;8.67;;;3.53;;
23449;SDS011;11897;45.438;12.128;2022-12-10T14:40:35;8.47;;;3.93;;
23449;SDS011;11897;45.438;12.128;2022-12-10T14:43:04;7.97;;;3.80;;
23449;SDS011;11897;45.438;12.128;2022-12-10T14:45:36;9.93;;;4.63;;
23449;SDS011;11897;45.438;12.128;2022-12-10T14:48:05;11.63;;;4.83;;
23449;SDS011;11897;45.438;12.128;2022-12-10T14:50:34;10.00;;;5.00;;
23449;SDS011;11897;45.438;12.128;2022-12-10T14:53:00;13.90;;;4.57;;
23449;SDS011;11897;45.438;12.128;2022-12-10T14:55:28;6.23;;;4.13;;
23449;SDS011;11897;45.438;12.128;2022-12-10T14:57:56;14.30;;;4.93;;